createdAt,value
2018-09-02T00:00:24.327Z,0
2018-09-02T00:01:24.351Z,0
2018-09-02T00:02:24.369Z,0
2018-09-02T00:03:38.801Z,0
2018-09-02T00:04:24.171Z,0
2018-09-02T00:05:24.441Z,0
2018-09-02T00:06:23.945Z,0
2018-09-02T00:07:39.151Z,0
2018-09-02T00:08:24.250Z,0
2018-09-02T00:09:24.272Z,0
2018-09-02T00:10:24.556Z,0
2018-09-02T00:11:24.062Z,0
2018-09-02T00:12:24.341Z,0
2018-09-02T00:13:24.365Z,0
2018-09-02T00:14:39.306Z,0
2018-09-02T00:15:39.332Z,0
2018-09-02T00:16:24.438Z,0
2018-09-02T00:17:24.200Z,0
2018-09-02T00:18:24.486Z,0
2018-09-02T00:19:24.517Z,0
2018-09-02T00:20:24.623Z,0
2018-09-02T00:22:24.569Z,0
2018-09-02T00:23:24.860Z,0
2018-09-02T00:24:39.283Z,0
2018-09-02T00:25:24.898Z,0
2018-09-02T00:26:24.923Z,0
2018-09-02T00:27:24.685Z,0
2018-09-02T00:28:24.716Z,0
2018-09-02T00:29:24.992Z,0
2018-09-02T00:30:24.922Z,0
2018-09-02T00:31:39.699Z,0
2018-09-02T00:32:24.799Z,0
2018-09-02T00:33:25.557Z,0
2018-09-02T00:34:25.111Z,0
2018-09-02T00:35:25.140Z,0
2018-09-02T00:36:25.150Z,0
2018-09-02T00:37:25.176Z,0
2018-09-02T00:38:25.195Z,0
2018-09-02T00:39:24.972Z,0
2018-09-02T00:40:24.985Z,0
2018-09-02T00:41:25.266Z,0
2018-09-02T00:42:25.285Z,0
2018-09-02T00:43:25.306Z,0
2018-09-02T00:44:25.335Z,0
2018-09-02T00:45:25.356Z,0
2018-09-02T00:46:40.041Z,0
2018-09-02T00:47:25.400Z,0
2018-09-02T00:48:25.424Z,0
2018-09-02T00:49:25.196Z,0
2018-09-02T00:50:25.476Z,0
2018-09-02T00:51:25.491Z,0
2018-09-02T00:52:25.515Z,0
2018-09-02T00:53:25.538Z,0
2018-09-02T00:54:25.666Z,0
2018-09-02T00:55:40.248Z,0
2018-09-02T00:56:25.452Z,0
2018-09-02T00:57:25.370Z,0
2018-09-02T00:58:25.659Z,0
2018-09-02T00:59:25.680Z,0
2018-09-02T01:00:25.694Z,0
2018-09-02T01:01:25.466Z,0
2018-09-02T01:02:40.404Z,0
2018-09-02T01:03:25.771Z,0
2018-09-02T01:04:25.789Z,0
2018-09-02T01:05:25.809Z,0
2018-09-02T01:06:25.834Z,0
2018-09-02T01:07:25.862Z,0
2018-09-02T01:10:25.927Z,0
2018-09-02T01:11:40.606Z,0
2018-09-02T01:12:25.978Z,0
2018-09-02T01:13:40.649Z,0
2018-09-02T01:14:25.754Z,0
2018-09-02T01:15:25.778Z,0
2018-09-02T01:16:26.059Z,0
2018-09-02T01:17:26.097Z,0
2018-09-02T01:18:40.763Z,0
2018-09-02T01:19:26.128Z,0
2018-09-02T01:20:26.145Z,0
2018-09-02T01:21:26.174Z,0
2018-09-02T01:22:26.196Z,0
2018-09-02T01:23:25.973Z,0
2018-09-02T01:24:26.303Z,0
2018-09-02T01:26:26.331Z,0
2018-09-02T01:27:40.711Z,0
2018-09-02T01:28:26.332Z,0
2018-09-02T01:29:26.093Z,0
2018-09-02T01:30:26.374Z,0
2018-09-02T01:31:26.394Z,0
2018-09-02T01:32:26.165Z,0
2018-09-02T01:34:41.128Z,0
2018-09-02T01:35:26.542Z,0
2018-09-02T01:36:26.247Z,0
2018-09-02T01:37:26.274Z,0
2018-09-02T01:38:26.559Z,0
2018-09-02T01:40:26.605Z,0
2018-09-02T01:41:26.371Z,0
2018-09-02T01:42:41.050Z,0
2018-09-02T01:43:26.669Z,0
2018-09-02T01:44:26.492Z,0
2018-09-02T01:45:26.453Z,0
2018-09-02T01:46:26.479Z,0
2018-09-02T01:47:26.514Z,0
2018-09-02T01:48:41.447Z,0
2018-09-02T01:49:41.472Z,0
2018-09-02T01:50:26.832Z,0
2018-09-02T01:53:26.901Z,0
2018-09-02T01:54:41.582Z,0
2018-09-02T01:55:26.944Z,0
2018-09-02T01:56:26.720Z,0
2018-09-02T01:57:26.985Z,0
2018-09-02T01:58:41.667Z,0
2018-09-02T01:59:27.035Z,0
2018-09-02T02:00:27.053Z,0
2018-09-02T02:01:27.077Z,0
2018-09-02T02:02:26.839Z,0
2018-09-02T02:03:27.117Z,0
2018-09-02T02:04:27.159Z,0
2018-09-02T02:05:41.826Z,0
2018-09-02T02:07:26.949Z,0
2018-09-02T02:11:27.304Z,0
2018-09-02T02:12:27.328Z,0
2018-09-02T02:13:27.344Z,0
2018-09-02T02:14:27.413Z,0
2018-09-02T02:15:42.046Z,0
2018-09-02T02:16:27.158Z,0
2018-09-02T02:17:26.917Z,0
2018-09-02T02:18:27.455Z,0
2018-09-02T02:19:27.490Z,0
2018-09-02T02:20:27.242Z,0
2018-09-02T02:21:41.925Z,0
2018-09-02T02:22:42.206Z,0
2018-09-02T02:23:42.228Z,0
2018-09-02T02:24:27.593Z,0
2018-09-02T02:25:27.358Z,0
2018-09-02T02:26:42.036Z,0
2018-09-02T02:27:27.660Z,0
2018-09-02T02:28:27.683Z,0
2018-09-02T02:29:42.366Z,0
2018-09-02T02:30:27.477Z,0
2018-09-02T02:31:27.754Z,0
2018-09-02T02:32:42.179Z,0
2018-09-02T02:33:27.791Z,0
2018-09-02T02:34:27.554Z,0
2018-09-02T02:35:27.842Z,0
2018-09-02T02:36:27.858Z,0
2018-09-02T02:37:42.293Z,0
2018-09-02T02:38:27.706Z,0
2018-09-02T02:39:42.587Z,0
2018-09-02T02:40:42.609Z,0
2018-09-02T02:41:27.969Z,0
2018-09-02T02:43:27.770Z,0
2018-09-02T02:44:28.046Z,0
2018-09-02T02:45:42.727Z,0
2018-09-02T02:46:28.079Z,0
2018-09-02T02:47:28.103Z,0
2018-09-02T02:48:28.129Z,0
2018-09-02T02:49:28.153Z,0
2018-09-02T02:50:28.178Z,0
2018-09-02T02:51:42.860Z,0
2018-09-02T02:52:27.965Z,0
2018-09-02T02:53:42.899Z,0
2018-09-02T02:54:28.259Z,0
2018-09-02T02:55:42.944Z,0
2018-09-02T02:56:28.315Z,0
2018-09-02T02:57:28.079Z,0
2018-09-02T02:58:28.098Z,0
2018-09-02T02:59:28.119Z,0
2018-09-02T03:00:27.881Z,0
2018-09-02T03:01:28.174Z,0
2018-09-02T03:02:28.190Z,0
2018-09-02T03:03:43.187Z,0
2018-09-02T03:04:27.976Z,0
2018-09-02T03:05:28.510Z,0
2018-09-02T03:06:43.201Z,0
2018-09-02T03:07:28.299Z,0
2018-09-02T03:08:28.581Z,0
2018-09-02T03:09:43.257Z,0
2018-09-02T03:10:43.349Z,0
2018-09-02T03:11:28.647Z,0
2018-09-02T03:12:43.334Z,0
2018-09-02T03:13:28.687Z,0
2018-09-02T03:14:28.723Z,0
2018-09-02T03:15:28.739Z,0
2018-09-02T03:16:28.760Z,0
2018-09-02T03:17:28.778Z,0
2018-09-02T03:18:28.816Z,0
2018-09-02T03:19:28.564Z,0
2018-09-02T03:20:28.846Z,0
2018-09-02T03:21:28.876Z,0
2018-09-02T03:22:28.708Z,0
2018-09-02T03:23:28.914Z,0
2018-09-02T03:24:43.341Z,0
2018-09-02T03:25:28.959Z,0
2018-09-02T03:26:28.977Z,0
2018-09-02T03:27:29.008Z,0
2018-09-02T03:28:29.033Z,0
2018-09-02T03:29:28.536Z,0
2018-09-02T03:30:29.080Z,0
2018-09-02T03:31:43.758Z,0
2018-09-02T03:32:29.130Z,0
2018-09-02T03:33:43.798Z,0
2018-09-02T03:34:43.564Z,0
2018-09-02T03:35:28.941Z,0
2018-09-02T03:36:29.208Z,0
2018-09-02T03:37:28.712Z,0
2018-09-02T03:38:28.740Z,0
2018-09-02T03:39:29.324Z,0
2018-09-02T03:40:29.035Z,0
2018-09-02T03:41:43.978Z,0
2018-09-02T03:42:29.137Z,0
2018-09-02T03:43:29.373Z,0
2018-09-02T03:44:29.410Z,4
2018-09-02T03:45:29.438Z,4
2018-09-02T03:46:29.176Z,4
2018-09-02T03:47:44.114Z,4
2018-09-02T03:48:29.470Z,4
2018-09-02T03:50:29.521Z,4
2018-09-02T03:51:29.542Z,8
2018-09-02T03:52:29.567Z,8
2018-09-02T03:53:29.072Z,8
2018-09-02T03:54:29.613Z,12
2018-09-02T03:55:29.472Z,12
2018-09-02T03:56:44.056Z,20
2018-09-02T03:57:29.429Z,24
2018-09-02T03:58:29.701Z,24
2018-09-02T03:59:29.204Z,28
2018-09-02T04:00:29.745Z,28
2018-09-02T04:01:29.506Z,32
2018-09-02T04:02:44.455Z,36
2018-09-02T04:03:29.807Z,44
2018-09-02T04:05:29.863Z,60
2018-09-02T04:06:44.534Z,68
2018-09-02T04:07:30.070Z,76
2018-09-02T04:08:29.766Z,84
2018-09-02T04:09:44.624Z,88
2018-09-02T04:10:29.710Z,92
2018-09-02T04:11:29.979Z,100
2018-09-02T04:12:44.411Z,112
2018-09-02T04:13:44.693Z,120
2018-09-02T04:14:29.794Z,124
2018-09-02T04:15:44.740Z,140
2018-09-02T04:16:30.101Z,144
2018-09-02T04:17:29.605Z,156
2018-09-02T04:18:30.165Z,168
2018-09-02T04:19:30.200Z,176
2018-09-02T04:21:30.208Z,188
2018-09-02T04:22:30.229Z,196
2018-09-02T04:23:30.255Z,200
2018-09-02T04:24:30.020Z,204
2018-09-02T04:25:30.297Z,216
2018-09-02T04:26:30.324Z,220
2018-09-02T04:27:30.345Z,224
2018-09-02T04:28:45.037Z,236
2018-09-02T04:29:30.386Z,244
2018-09-02T04:30:30.416Z,248
2018-09-02T04:31:30.180Z,256
2018-09-02T04:32:30.467Z,260
2018-09-02T04:33:30.325Z,260
2018-09-02T04:34:30.511Z,264
2018-09-02T04:35:30.523Z,268
2018-09-02T04:36:45.205Z,280
2018-09-02T04:37:30.314Z,284
2018-09-02T04:38:30.619Z,296
2018-09-02T04:39:30.350Z,300
2018-09-02T04:40:30.390Z,312
2018-09-02T04:41:30.657Z,320
2018-09-02T04:42:30.678Z,340
2018-09-02T04:43:30.700Z,360
2018-09-02T04:44:45.382Z,396
2018-09-02T04:45:31.020Z,424
2018-09-02T04:46:30.506Z,464
2018-09-02T04:47:45.448Z,520
2018-09-02T04:48:30.558Z,552
2018-09-02T04:49:30.832Z,596
2018-09-02T04:50:30.597Z,640
2018-09-02T04:52:30.902Z,752
2018-09-02T04:53:30.926Z,824
2018-09-02T04:54:31.230Z,904
2018-09-02T04:55:30.711Z,976
2018-09-02T04:56:30.729Z,1064
2018-09-02T04:57:30.499Z,1160
2018-09-02T04:58:31.031Z,1284
2018-09-02T04:59:45.715Z,1460
2018-09-02T05:00:31.286Z,1572
2018-09-02T05:01:45.762Z,1744
2018-09-02T05:02:45.794Z,1896
2018-09-02T05:03:31.148Z,2000
2018-09-02T05:05:45.856Z,2232
2018-09-02T05:06:30.956Z,2300
2018-09-02T05:07:30.977Z,2404
2018-09-02T05:09:31.284Z,2596
2018-09-02T05:10:31.312Z,2644
2018-09-02T05:11:31.071Z,2680
2018-09-02T05:12:31.354Z,2660
2018-09-02T05:13:31.119Z,2672
2018-09-02T05:14:31.410Z,2688
2018-09-02T05:15:31.429Z,2680
2018-09-02T05:16:31.176Z,2636
2018-09-02T05:17:31.458Z,2540
2018-09-02T05:18:30.964Z,2412
2018-09-02T05:19:31.244Z,2252
2018-09-02T05:20:31.524Z,2076
2018-09-02T05:21:31.292Z,1912
2018-09-02T05:22:31.346Z,1788
2018-09-02T05:23:31.076Z,1712
2018-09-02T05:24:46.286Z,1660
2018-09-02T05:25:46.305Z,1632
2018-09-02T05:26:31.657Z,1616
2018-09-02T05:27:31.687Z,1584
2018-09-02T05:28:46.369Z,1544
2018-09-02T05:29:31.733Z,1520
2018-09-02T05:30:31.747Z,1504
2018-09-02T05:32:01.096Z,1488
2018-09-02T05:32:31.796Z,1484
2018-09-02T05:33:31.822Z,1484
2018-09-02T05:34:31.323Z,1476
2018-09-02T05:36:31.883Z,1448
2018-09-02T05:37:31.913Z,1440
2018-09-02T05:38:31.933Z,1428
2018-09-02T05:39:31.440Z,1424
2018-09-02T05:40:31.978Z,1428
2018-09-02T05:41:46.655Z,1432
2018-09-02T05:42:32.020Z,1444
2018-09-02T05:43:32.051Z,1448
2018-09-02T05:44:32.066Z,1448
2018-09-02T05:45:32.084Z,1460
2018-09-02T05:46:32.116Z,1468
2018-09-02T05:47:46.533Z,1480
2018-09-02T05:48:46.814Z,1488
2018-09-02T05:49:46.845Z,1496
2018-09-02T05:51:32.225Z,1512
2018-09-02T05:52:31.984Z,1524
2018-09-02T05:53:32.271Z,1540
2018-09-02T05:54:32.031Z,1552
2018-09-02T05:55:32.382Z,1552
2018-09-02T05:56:32.078Z,1552
2018-09-02T05:57:32.461Z,1536
2018-09-02T05:58:32.378Z,1536
2018-09-02T05:59:32.143Z,1532
2018-09-02T06:00:32.168Z,1536
2018-09-02T06:01:32.453Z,1540
2018-09-02T06:02:32.470Z,1552
2018-09-02T06:04:01.813Z,1576
2018-09-02T06:04:32.258Z,1588
2018-09-02T06:05:32.543Z,1616
2018-09-02T06:06:32.300Z,1660
2018-09-02T06:07:32.576Z,1708
2018-09-02T06:08:32.604Z,1752
2018-09-02T06:09:32.623Z,1800
2018-09-02T06:10:32.688Z,1840
2018-09-02T06:11:32.611Z,1884
2018-09-02T06:12:32.692Z,1932
2018-09-02T06:13:32.718Z,1992
2018-09-02T06:14:32.213Z,2060
2018-09-02T06:15:32.239Z,2140
2018-09-02T06:16:32.789Z,2224
2018-09-02T06:17:32.849Z,2308
2018-09-02T06:18:32.828Z,2376
2018-09-02T06:19:47.505Z,2464
2018-09-02T06:20:47.531Z,2520
2018-09-02T06:21:32.375Z,2572
2018-09-02T06:22:32.395Z,2648
2018-09-02T06:23:32.939Z,2716
2018-09-02T06:24:32.954Z,2800
2018-09-02T06:25:32.979Z,2864
2018-09-02T06:26:33.001Z,2936
2018-09-02T06:27:33.024Z,3000
2018-09-02T06:28:47.453Z,3100
2018-09-02T06:29:47.727Z,3208
2018-09-02T06:30:32.580Z,3292
2018-09-02T06:31:32.859Z,3456
2018-09-02T06:32:32.621Z,3648
2018-09-02T06:33:33.158Z,3848
2018-09-02T06:35:33.680Z,4292
2018-09-02T06:36:32.972Z,4532
2018-09-02T06:39:33.898Z,5004
2018-09-02T06:40:47.981Z,5000
2018-09-02T06:42:33.105Z,4768
2018-09-02T06:43:33.491Z,4636
2018-09-02T06:44:33.148Z,4564
2018-09-02T06:45:33.184Z,4548
2018-09-02T06:46:33.455Z,4580
2018-09-02T06:47:33.221Z,4620
2018-09-02T06:48:48.163Z,4676
2018-09-02T06:49:33.316Z,4752
2018-09-02T06:50:33.282Z,4848
2018-09-02T06:51:33.313Z,4980
2018-09-02T06:52:33.329Z,5080
2018-09-02T06:53:33.616Z,5264
2018-09-02T06:54:33.632Z,5344
2018-09-02T06:55:33.405Z,5288
2018-09-02T06:56:33.687Z,5108
2018-09-02T06:57:33.447Z,4816
2018-09-02T06:58:33.594Z,4588
2018-09-02T06:59:33.592Z,4256
2018-09-02T07:00:33.767Z,3988
2018-09-02T07:01:33.807Z,3740
2018-09-02T07:02:48.473Z,3504
2018-09-02T07:03:33.837Z,3432
2018-09-02T07:04:33.344Z,3384
2018-09-02T07:05:33.894Z,3396
2018-09-02T07:06:48.689Z,3456
2018-09-02T07:07:48.494Z,3536
2018-09-02T07:09:48.378Z,3732
2018-09-02T07:10:33.740Z,3820
2018-09-02T07:11:33.816Z,3948
2018-09-02T07:12:34.044Z,4100
2018-09-02T07:13:34.114Z,4280
2018-09-02T07:14:34.039Z,4464
2018-09-02T07:15:48.834Z,4720
2018-09-02T07:16:48.851Z,4948
2018-09-02T07:17:48.813Z,5160
2018-09-02T07:18:33.665Z,5304
2018-09-02T07:19:34.206Z,5524
2018-09-02T07:20:34.223Z,5892
2018-09-02T07:21:34.249Z,6348
2018-09-02T07:22:48.933Z,7048
2018-09-02T07:23:48.954Z,7596
2018-09-02T07:24:34.327Z,7984
2018-09-02T07:25:34.337Z,8856
2018-09-02T07:26:34.360Z,10104
2018-09-02T07:27:34.395Z,11404
2018-09-02T07:28:33.896Z,12464
2018-09-02T07:29:34.431Z,13376
2018-09-02T07:30:34.461Z,13876
2018-09-02T07:31:34.895Z,13880
2018-09-02T07:33:34.364Z,12540
2018-09-02T07:34:34.288Z,11260
2018-09-02T07:35:34.574Z,9656
2018-09-02T07:36:34.604Z,8372
2018-09-02T07:37:34.633Z,7264
2018-09-02T07:38:49.300Z,6272
2018-09-02T07:40:34.702Z,5812
2018-09-02T07:41:34.715Z,5724
2018-09-02T07:42:34.475Z,5720
2018-09-02T07:44:34.780Z,5800
2018-09-02T07:45:34.804Z,5684
2018-09-02T07:46:34.827Z,5908
2018-09-02T07:47:34.851Z,5968
2018-09-02T07:48:34.873Z,5928
2018-09-02T07:49:34.896Z,5796
2018-09-02T07:50:34.661Z,5668
2018-09-02T07:51:34.943Z,5496
2018-09-02T07:52:34.960Z,5728
2018-09-02T07:53:34.989Z,5552
2018-09-02T07:54:49.673Z,5496
2018-09-02T07:55:35.031Z,5416
2018-09-02T07:56:34.802Z,5404
2018-09-02T07:57:34.819Z,5240
2018-09-02T07:58:35.108Z,5056
2018-09-02T07:59:34.867Z,4708
2018-09-02T08:00:35.158Z,4336
2018-09-02T08:01:35.180Z,3964
2018-09-02T08:02:35.287Z,3644
2018-09-02T08:03:35.230Z,3488
2018-09-02T08:04:35.249Z,3408
2018-09-02T08:05:35.263Z,3352
2018-09-02T08:06:35.032Z,3384
2018-09-02T08:07:35.058Z,3364
2018-09-02T08:08:35.338Z,3316
2018-09-02T08:09:49.763Z,3292
2018-09-02T08:10:35.387Z,3308
2018-09-02T08:11:35.412Z,3432
2018-09-02T08:12:35.565Z,3580
2018-09-02T08:13:35.196Z,3520
2018-09-02T08:14:50.150Z,3476
2018-09-02T08:15:35.247Z,3460
2018-09-02T08:16:35.278Z,3452
2018-09-02T08:17:35.288Z,3456
2018-09-02T08:18:35.571Z,3452
2018-09-02T08:19:35.344Z,3416
2018-09-02T08:20:35.102Z,3328
2018-09-02T08:21:35.639Z,3176
2018-09-02T08:23:35.683Z,2836
2018-09-02T08:24:35.196Z,2764
2018-09-02T08:25:35.891Z,2804
2018-09-02T08:26:35.806Z,2952
2018-09-02T08:27:50.440Z,3180
2018-09-02T08:28:35.555Z,3316
2018-09-02T08:29:35.582Z,3456
2018-09-02T08:30:35.592Z,3516
2018-09-02T08:31:35.867Z,3524
2018-09-02T08:32:35.903Z,3500
2018-09-02T08:33:35.915Z,3548
2018-09-02T08:34:35.946Z,3732
2018-09-02T08:35:35.967Z,3988
2018-09-02T08:36:35.734Z,4164
2018-09-02T08:37:35.242Z,4220
2018-09-02T08:38:36.060Z,4144
2018-09-02T08:39:35.801Z,4084
2018-09-02T08:40:36.079Z,4100
2018-09-02T08:41:50.677Z,4304
2018-09-02T08:42:36.127Z,4444
2018-09-02T08:43:36.149Z,4636
2018-09-02T08:44:50.576Z,4912
2018-09-02T08:45:36.198Z,5064
2018-09-02T08:46:36.221Z,5168
2018-09-02T08:47:36.254Z,5116
2018-09-02T08:49:36.043Z,5168
2018-09-02T08:50:36.753Z,5240
2018-09-02T08:51:36.337Z,5248
2018-09-02T08:52:36.361Z,5144
2018-09-02T08:53:36.385Z,4908
2018-09-02T08:54:36.410Z,4628
2018-09-02T08:55:36.432Z,4368
2018-09-02T08:57:51.137Z,4068
2018-09-02T08:58:36.502Z,4136
2018-09-02T08:59:36.572Z,4284
2018-09-02T09:00:36.288Z,4388
2018-09-02T09:01:36.380Z,4376
2018-09-02T09:02:36.597Z,4444
2018-09-02T09:03:36.661Z,4576
2018-09-02T09:04:36.638Z,4804
2018-09-02T09:05:51.343Z,5132
2018-09-02T09:06:36.686Z,5244
2018-09-02T09:07:37.432Z,5456
2018-09-02T09:08:52.603Z,5872
2018-09-02T09:09:36.760Z,6248
2018-09-02T09:10:36.776Z,6760
2018-09-02T09:11:36.803Z,6968
2018-09-02T09:12:36.826Z,6796
2018-09-02T09:13:51.522Z,6248
2018-09-02T09:14:36.871Z,5808
2018-09-02T09:15:51.557Z,5464
2018-09-02T09:16:36.817Z,5572
2018-09-02T09:17:36.946Z,5780
2018-09-02T09:18:51.625Z,5836
2018-09-02T09:19:36.736Z,5768
2018-09-02T09:21:37.365Z,5264
2018-09-02T09:22:36.906Z,5032
2018-09-02T09:23:37.086Z,4812
2018-09-02T09:24:51.828Z,4732
2018-09-02T09:25:37.132Z,4724
2018-09-02T09:26:36.900Z,4712
2018-09-02T09:27:37.187Z,4704
2018-09-02T09:28:36.945Z,4744
2018-09-02T09:29:51.886Z,4796
2018-09-02T09:30:37.258Z,4860
2018-09-02T09:31:37.278Z,5048
2018-09-02T09:32:37.041Z,5320
2018-09-02T09:33:37.319Z,5504
2018-09-02T09:34:37.351Z,5708
2018-09-02T09:35:37.368Z,5732
2018-09-02T09:36:37.389Z,5552
2018-09-02T09:37:37.463Z,5236
2018-09-02T09:38:52.101Z,4924
2018-09-02T09:39:52.123Z,4740
2018-09-02T09:40:36.968Z,4644
2018-09-02T09:41:37.512Z,4512
2018-09-02T09:42:37.537Z,4392
2018-09-02T09:43:37.302Z,4256
2018-09-02T09:44:52.259Z,4012
2018-09-02T09:45:37.361Z,3948
2018-09-02T09:46:37.631Z,4032
2018-09-02T09:47:37.657Z,4132
2018-09-02T09:49:37.711Z,3588
2018-09-02T09:51:37.500Z,3392
2018-09-02T09:52:52.433Z,3264
2018-09-02T09:53:37.791Z,3196
2018-09-02T09:54:37.865Z,3156
2018-09-02T09:55:38.084Z,2996
2018-09-02T09:56:37.611Z,2872
2018-09-02T09:57:37.890Z,2784
2018-09-02T09:58:37.912Z,2728
2018-09-02T09:59:52.344Z,2656
2018-09-02T10:00:37.961Z,2636
2018-09-02T10:01:37.984Z,2684
2018-09-02T10:02:38.005Z,2764
2018-09-02T10:03:38.138Z,2820
2018-09-02T10:04:38.060Z,2848
2018-09-02T10:05:38.077Z,2852
2018-09-02T10:06:52.765Z,2852
2018-09-02T10:07:38.122Z,2916
2018-09-02T10:08:38.197Z,3276
2018-09-02T10:09:52.896Z,4276
2018-09-02T10:10:38.466Z,5020
2018-09-02T10:11:38.401Z,5872
2018-09-02T10:12:38.252Z,6084
2018-09-02T10:13:38.271Z,6200
2018-09-02T10:14:52.955Z,6444
2018-09-02T10:15:38.058Z,6300
2018-09-02T10:16:52.743Z,6016
2018-09-02T10:17:37.849Z,5544
2018-09-02T10:18:52.787Z,5108
2018-09-02T10:19:38.152Z,4772
2018-09-02T10:20:53.190Z,4456
2018-09-02T10:21:38.200Z,4308
2018-09-02T10:22:37.962Z,4056
2018-09-02T10:23:38.242Z,3928
2018-09-02T10:24:38.329Z,3932
2018-09-02T10:25:38.295Z,3892
2018-09-02T10:26:52.986Z,3812
2018-09-02T10:27:39.032Z,3848
2018-09-02T10:28:38.363Z,4080
2018-09-02T10:29:38.642Z,4132
2018-09-02T10:30:38.671Z,4176
2018-09-02T10:31:38.434Z,4132
2018-09-02T10:32:53.376Z,4144
2018-09-02T10:33:53.543Z,4156
2018-09-02T10:34:38.506Z,3936
2018-09-02T10:35:53.450Z,3616
2018-09-02T10:36:38.811Z,3616
2018-09-02T10:37:38.835Z,3760
2018-09-02T10:38:38.858Z,3912
2018-09-02T10:39:38.887Z,4288
2018-09-02T10:40:38.904Z,4736
2018-09-02T10:41:39.406Z,4920
2018-09-02T10:42:53.351Z,4516
2018-09-02T10:43:38.715Z,4384
2018-09-02T10:45:39.033Z,4200
2018-09-02T10:46:39.045Z,4132
2018-09-02T10:47:39.069Z,4192
2018-09-02T10:48:53.749Z,4548
2018-09-02T10:49:53.904Z,4696
2018-09-02T10:50:39.159Z,4720
2018-09-02T10:51:53.821Z,4860
2018-09-02T10:52:39.183Z,5072
2018-09-02T10:53:53.878Z,5336
2018-09-02T10:55:53.660Z,5772
2018-09-02T10:56:39.322Z,5932
2018-09-02T10:58:39.328Z,6252
2018-09-02T10:59:39.604Z,6428
2018-09-02T11:00:39.380Z,6552
2018-09-02T11:01:39.455Z,6684
2018-09-02T11:02:39.173Z,6808
2018-09-02T11:03:38.932Z,6944
2018-09-02T11:04:53.876Z,7104
2018-09-02T11:05:38.978Z,7192
2018-09-02T11:07:53.981Z,7404
2018-09-02T11:08:39.527Z,7480
2018-09-02T11:09:39.593Z,7572
2018-09-02T11:10:39.615Z,7652
2018-09-02T11:11:39.648Z,7704
2018-09-02T11:12:39.664Z,7724
2018-09-02T11:13:40.565Z,7540
2018-09-02T11:14:39.713Z,7164
2018-09-02T11:15:39.473Z,6872
2018-09-02T11:17:39.289Z,6872
2018-09-02T11:18:54.468Z,6584
2018-09-02T11:19:54.232Z,6232
2018-09-02T11:20:39.339Z,6028
2018-09-02T11:21:54.282Z,5844
2018-09-02T11:22:39.644Z,5536
2018-09-02T11:23:39.433Z,5244
2018-09-02T11:24:39.689Z,5164
2018-09-02T11:25:39.716Z,5168
2018-09-02T11:27:40.021Z,5620
2018-09-02T11:28:40.048Z,6004
2018-09-02T11:29:39.808Z,6452
2018-09-02T11:30:40.097Z,6892
2018-09-02T11:31:40.116Z,7180
2018-09-02T11:32:40.140Z,7404
2018-09-02T11:33:40.165Z,7612
2018-09-02T11:34:39.930Z,7808
2018-09-02T11:35:40.216Z,8056
2018-09-02T11:36:39.720Z,8320
2018-09-02T11:37:54.924Z,8600
2018-09-02T11:38:40.285Z,8772
2018-09-02T11:39:40.365Z,9016
2018-09-02T11:40:40.343Z,9296
2018-09-02T11:41:40.383Z,9596
2018-09-02T11:42:40.427Z,9940
2018-09-02T11:43:40.407Z,10312
2018-09-02T11:44:55.109Z,10708
2018-09-02T11:45:40.460Z,10884
2018-09-02T11:46:40.574Z,11004
2018-09-02T11:47:40.505Z,11052
2018-09-02T11:48:40.535Z,11040
2018-09-02T11:49:40.571Z,11012
2018-09-02T11:50:40.576Z,10980
2018-09-02T11:52:40.624Z,10836
2018-09-02T11:53:40.659Z,10756
2018-09-02T11:54:55.333Z,10704
2018-09-02T11:55:40.439Z,10656
2018-09-02T11:56:40.480Z,10508
2018-09-02T11:57:55.572Z,10324
2018-09-02T11:58:40.778Z,10192
2018-09-02T11:59:40.542Z,9932
2018-09-02T12:00:40.566Z,9572
2018-09-02T12:01:55.250Z,8912
2018-09-02T12:02:40.875Z,8444
2018-09-02T12:03:40.645Z,7816
2018-09-02T12:04:40.975Z,7256
2018-09-02T12:05:40.687Z,6812
2018-09-02T12:06:55.635Z,6320
2018-09-02T12:07:55.655Z,5980
2018-09-02T12:08:41.026Z,5800
2018-09-02T12:09:41.042Z,5636
2018-09-02T12:10:41.065Z,5564
2018-09-02T12:11:41.348Z,5484
2018-09-02T12:12:41.121Z,5296
2018-09-02T12:13:41.149Z,4988
2018-09-02T12:14:41.500Z,4672
2018-09-02T12:15:41.187Z,4296
2018-09-02T12:16:41.215Z,3892
2018-09-02T12:17:41.108Z,3476
2018-09-02T12:18:41.263Z,3152
2018-09-02T12:19:41.297Z,2984
2018-09-02T12:20:41.313Z,2976
2018-09-02T12:21:41.085Z,3080
2018-09-02T12:22:41.360Z,3236
2018-09-02T12:23:55.791Z,3440
2018-09-02T12:24:41.161Z,3592
2018-09-02T12:25:41.439Z,3920
2018-09-02T12:26:41.203Z,4388
2018-09-02T12:27:41.239Z,4884
2018-09-02T12:28:55.916Z,5640
2018-09-02T12:29:41.279Z,6136
2018-09-02T12:30:55.974Z,6940
2018-09-02T12:31:41.623Z,7432
2018-09-02T12:32:41.618Z,8164
2018-09-02T12:33:41.635Z,9116
2018-09-02T12:34:41.396Z,10012
2018-09-02T12:35:41.682Z,10620
2018-09-02T12:36:41.704Z,10404
2018-09-02T12:38:41.764Z,9716
2018-09-02T12:40:11.102Z,10004
2018-09-02T12:40:41.546Z,9940
2018-09-02T12:41:56.238Z,9504
2018-09-02T12:42:41.864Z,8672
2018-09-02T12:43:41.892Z,8832
2018-09-02T12:44:41.751Z,8536
2018-09-02T12:45:41.671Z,8548
2018-09-02T12:46:41.990Z,8416
2018-09-02T12:47:42.194Z,7956
2018-09-02T12:48:41.748Z,8556
2018-09-02T12:49:56.690Z,8612
2018-09-02T12:50:41.797Z,8032
2018-09-02T12:51:42.078Z,8636
2018-09-02T12:52:42.116Z,8616
2018-09-02T12:53:42.123Z,8436
2018-09-02T12:54:56.816Z,7196
2018-09-02T12:55:56.837Z,6740
2018-09-02T12:56:42.207Z,6660
2018-09-02T12:57:42.228Z,6640
2018-09-02T12:58:57.236Z,6600
2018-09-02T12:59:41.807Z,6568
2018-09-02T13:00:42.304Z,6512
2018-09-02T13:01:42.329Z,6416
2018-09-02T13:02:57.018Z,6344
2018-09-02T13:04:56.807Z,6332
2018-09-02T13:05:42.422Z,6228
2018-09-02T13:06:42.552Z,6232
2018-09-02T13:07:42.474Z,5824
2018-09-02T13:08:42.252Z,5588
2018-09-02T13:09:42.356Z,5380
2018-09-02T13:10:42.293Z,5224
2018-09-02T13:11:42.582Z,5132
2018-09-02T13:12:42.546Z,5080
2018-09-02T13:13:42.646Z,5024
2018-09-02T13:14:42.395Z,5032
2018-09-02T13:15:57.333Z,5076
2018-09-02T13:16:42.709Z,5112
2018-09-02T13:17:42.829Z,5200
2018-09-02T13:18:42.749Z,5332
2018-09-02T13:19:42.779Z,5472
2018-09-02T13:20:57.203Z,5616
2018-09-02T13:21:42.830Z,5648
2018-09-02T13:22:42.847Z,5688
2018-09-02T13:23:42.876Z,5748
2018-09-02T13:24:43.210Z,5852
2018-09-02T13:25:42.926Z,5988
2018-09-02T13:26:57.354Z,6128
2018-09-02T13:27:57.381Z,6232
2018-09-02T13:28:57.405Z,6384
2018-09-02T13:29:43.140Z,6512
2018-09-02T13:30:43.046Z,6532
2018-09-02T13:31:42.919Z,6464
2018-09-02T13:32:42.847Z,6356
2018-09-02T13:33:43.258Z,6632
2018-09-02T13:34:42.921Z,6200
2018-09-02T13:35:42.661Z,6020
2018-09-02T13:36:43.205Z,5784
2018-09-02T13:37:43.229Z,5676
2018-09-02T13:38:42.735Z,5544
2018-09-02T13:39:43.018Z,5384
2018-09-02T13:40:43.308Z,5328
2018-09-02T13:41:43.325Z,5256
2018-09-02T13:43:12.776Z,5596
2018-09-02T13:43:43.382Z,5760
2018-09-02T13:44:43.401Z,6220
2018-09-02T13:45:43.167Z,6608
2018-09-02T13:46:43.454Z,6784
2018-09-02T13:47:43.223Z,6912
2018-09-02T13:48:43.621Z,6824
2018-09-02T13:49:43.543Z,6632
2018-09-02T13:50:43.295Z,6516
2018-09-02T13:51:43.534Z,6596
2018-09-02T13:52:58.266Z,6668
2018-09-02T13:53:43.634Z,6748
2018-09-02T13:54:43.952Z,6868
2018-09-02T13:55:43.679Z,6808
2018-09-02T13:56:43.717Z,6516
2018-09-02T13:57:43.475Z,6144
2018-09-02T13:58:58.158Z,5988
2018-09-02T13:59:44.212Z,6044
2018-09-02T14:00:58.519Z,6004
2018-09-02T14:01:58.235Z,5976
2018-09-02T14:02:43.598Z,5832
2018-09-02T14:03:58.547Z,5696
2018-09-02T14:04:43.907Z,5676
2018-09-02T14:05:43.938Z,5728
2018-09-02T14:06:43.703Z,5788
2018-09-02T14:07:44.321Z,5792
2018-09-02T14:08:44.019Z,5752
2018-09-02T14:09:44.038Z,5728
2018-09-02T14:10:44.067Z,5696
2018-09-02T14:11:44.082Z,5660
2018-09-02T14:12:44.132Z,5656
2018-09-02T14:13:43.880Z,5572
2018-09-02T14:14:58.568Z,5552
2018-09-02T14:15:43.926Z,5528
2018-09-02T14:16:43.699Z,5380
2018-09-02T14:17:43.985Z,5376
2018-09-02T14:18:44.007Z,5648
2018-09-02T14:19:44.589Z,5944
2018-09-02T14:20:44.106Z,6140
2018-09-02T14:21:44.083Z,6400
2018-09-02T14:22:44.108Z,6592
2018-09-02T14:23:44.397Z,6496
2018-09-02T14:24:44.165Z,6160
2018-09-02T14:25:44.190Z,5748
2018-09-02T14:26:44.464Z,5452